createdAt,value
2023-03-30T00:00:30.157Z,7.92
2023-03-30T00:02:01.525Z,8.61
2023-03-30T00:03:33.418Z,8.18
2023-03-30T00:05:05.156Z,5.71
2023-03-30T00:06:38.071Z,8.81
2023-03-30T00:08:09.614Z,6.80
2023-03-30T00:09:41.166Z,6.48
2023-03-30T00:11:12.476Z,7.44
2023-03-30T00:12:43.818Z,7.32
2023-03-30T00:14:15.385Z,7.45
2023-03-30T00:15:46.700Z,7.98
2023-03-30T00:17:18.286Z,6.65
2023-03-30T00:18:50.073Z,7.36
2023-03-30T00:20:21.640Z,8.64
2023-03-30T00:21:53.171Z,7.11
2023-03-30T00:23:24.575Z,8.51
2023-03-30T00:24:56.250Z,7.14
2023-03-30T00:26:27.655Z,6.72
2023-03-30T00:27:59.208Z,6.57
2023-03-30T00:29:30.513Z,6.63
2023-03-30T00:31:02.648Z,7.33
2023-03-30T00:32:34.282Z,8.85
2023-03-30T00:34:06.732Z,5.92
2023-03-30T00:35:38.230Z,8.15
2023-03-30T00:37:09.596Z,6.03
2023-03-30T00:38:41.155Z,6.47
2023-03-30T00:40:12.430Z,6.02
2023-03-30T00:41:43.932Z,6.71
2023-03-30T00:43:15.458Z,6.38
2023-03-30T00:44:46.780Z,5.95
2023-03-30T00:46:18.138Z,7.50
2023-03-30T00:47:49.608Z,6.68
2023-03-30T00:49:21.049Z,7.53
2023-03-30T00:50:52.625Z,7.99
2023-03-30T00:52:24.266Z,6.34
2023-03-30T00:53:55.626Z,7.37
2023-03-30T00:55:26.908Z,6.63
2023-03-30T00:56:58.240Z,9.52
2023-03-30T00:58:29.697Z,5.97
2023-03-30T01:00:00.986Z,7.54
2023-03-30T01:01:32.319Z,7.06
2023-03-30T01:03:03.785Z,6.89
2023-03-30T01:04:35.157Z,7.52
2023-03-30T01:06:06.417Z,7.54
2023-03-30T01:07:37.753Z,6.32
2023-03-30T01:09:09.238Z,6.21
2023-03-30T01:10:40.624Z,6.88
2023-03-30T01:12:11.997Z,6.39
2023-03-30T01:13:43.838Z,5.65
2023-03-30T01:15:15.301Z,7.54
2023-03-30T01:16:46.694Z,7.57
2023-03-30T01:18:17.976Z,7.39
2023-03-30T01:19:49.547Z,7.74
2023-03-30T01:21:20.906Z,7.96
2023-03-30T01:22:52.279Z,7.57
2023-03-30T01:24:23.668Z,6.02
2023-03-30T01:25:55.290Z,6.09
2023-03-30T01:27:26.667Z,6.41
2023-03-30T01:28:58.160Z,5.88
2023-03-30T01:30:29.628Z,8.40
2023-03-30T01:32:00.916Z,6.14
2023-03-30T01:33:32.726Z,7.81
2023-03-30T01:35:04.237Z,7.16
2023-03-30T01:36:35.716Z,8.53
2023-03-30T01:38:07.130Z,8.02
2023-03-30T01:39:38.881Z,7.26
2023-03-30T01:41:10.148Z,8.36
2023-03-30T01:42:41.870Z,6.22
2023-03-30T01:44:13.229Z,8.78
2023-03-30T01:45:44.744Z,7.69
2023-03-30T01:47:16.422Z,7.46
2023-03-30T01:48:47.847Z,7.35
2023-03-30T01:50:19.404Z,6.74
2023-03-30T01:51:51.021Z,7.05
2023-03-30T01:53:22.392Z,6.26
2023-03-30T01:54:54.064Z,8.57
2023-03-30T01:56:25.479Z,6.30
2023-03-30T01:57:56.952Z,7.26
2023-03-30T01:59:28.464Z,7.58
2023-03-30T02:01:01.281Z,8.03
2023-03-30T02:02:32.955Z,6.86
2023-03-30T02:04:04.781Z,7.56
2023-03-30T02:05:36.240Z,7.37
2023-03-30T02:07:07.564Z,6.49
2023-03-30T02:08:38.903Z,9.34
2023-03-30T02:10:10.514Z,7.25
2023-03-30T02:11:42.041Z,6.68
2023-03-30T02:13:13.403Z,6.55
2023-03-30T02:14:44.833Z,8.57
2023-03-30T02:16:16.557Z,10.13
2023-03-30T02:17:47.973Z,10.86
2023-03-30T02:19:19.428Z,8.34
2023-03-30T02:20:50.728Z,8.86
2023-03-30T02:22:22.130Z,8.18
2023-03-30T02:23:53.546Z,8.87
2023-03-30T02:25:25.509Z,10.23
2023-03-30T02:26:56.980Z,7.90
2023-03-30T02:28:28.984Z,6.73
2023-03-30T02:30:01.217Z,6.90
2023-03-30T02:31:32.657Z,7.10
2023-03-30T02:33:04.046Z,11.66
2023-03-30T02:34:35.657Z,7.73
2023-03-30T02:36:06.980Z,10.15
2023-03-30T02:37:38.698Z,9.92
2023-03-30T02:39:12.468Z,8.77
2023-03-30T02:40:45.453Z,6.75
2023-03-30T02:42:16.789Z,9.60
2023-03-30T02:43:48.102Z,9.11
2023-03-30T02:45:19.472Z,8.70
2023-03-30T02:46:51.133Z,7.74
2023-03-30T02:48:22.583Z,7.26
2023-03-30T02:49:54.379Z,10.55
2023-03-30T02:51:25.955Z,8.98
2023-03-30T02:52:57.396Z,7.99
2023-03-30T02:54:29.612Z,11.21
2023-03-30T02:56:00.959Z,8.67
2023-03-30T02:57:32.334Z,10.19
2023-03-30T02:59:04.016Z,9.49
2023-03-30T03:00:35.454Z,8.86
2023-03-30T03:02:07.532Z,8.94
2023-03-30T03:03:39.372Z,10.64
2023-03-30T03:05:10.765Z,9.01
2023-03-30T03:06:42.210Z,9.06
2023-03-30T03:08:13.569Z,7.93
2023-03-30T03:09:45.013Z,12.32
2023-03-30T03:11:16.341Z,8.68
2023-03-30T03:12:48.241Z,8.27
2023-03-30T03:14:19.562Z,11.66
2023-03-30T03:15:51.182Z,8.66
2023-03-30T03:17:23.624Z,9.26
2023-03-30T03:18:55.080Z,8.45
2023-03-30T03:20:26.481Z,9.75
2023-03-30T03:21:57.868Z,8.74
2023-03-30T03:23:29.810Z,8.51
2023-03-30T03:25:01.236Z,7.85
2023-03-30T03:26:32.565Z,8.47
2023-03-30T03:28:03.964Z,9.99
2023-03-30T03:29:35.264Z,9.69
2023-03-30T03:31:07.032Z,9.33
2023-03-30T03:32:39.189Z,8.84
2023-03-30T03:34:10.628Z,9.26
2023-03-30T03:35:42.201Z,9.38
2023-03-30T03:37:15.901Z,9.60
2023-03-30T03:38:47.354Z,11.72
2023-03-30T03:40:18.797Z,9.71
2023-03-30T03:41:50.203Z,6.87
2023-03-30T03:43:21.714Z,7.88
2023-03-30T03:44:53.095Z,7.00
2023-03-30T03:46:24.564Z,5.33
2023-03-30T03:47:56.238Z,7.75
2023-03-30T03:49:27.855Z,7.29
2023-03-30T03:50:59.353Z,5.60
2023-03-30T03:52:30.676Z,8.62
2023-03-30T03:54:02.068Z,7.88
2023-03-30T03:55:33.594Z,4.23
2023-03-30T03:57:04.920Z,6.06
2023-03-30T03:58:36.478Z,6.58
2023-03-30T04:00:08.073Z,9.32
2023-03-30T04:01:39.524Z,8.24
2023-03-30T04:03:10.917Z,6.80
2023-03-30T04:04:42.463Z,9.33
2023-03-30T04:06:13.978Z,6.78
2023-03-30T04:07:45.364Z,8.90
2023-03-30T04:09:16.759Z,6.34
2023-03-30T04:10:48.258Z,8.39
2023-03-30T04:12:19.707Z,10.09
2023-03-30T04:13:51.188Z,8.62
2023-03-30T04:15:22.654Z,11.48
2023-03-30T04:16:54.018Z,9.32
2023-03-30T04:18:25.429Z,8.94
2023-03-30T04:19:56.877Z,12.09
2023-03-30T04:21:28.456Z,9.59
2023-03-30T04:23:00.083Z,11.91
2023-03-30T04:24:31.541Z,9.53
2023-03-30T04:26:02.848Z,10.02
2023-03-30T04:27:34.308Z,9.75
2023-03-30T04:29:05.815Z,10.75
2023-03-30T04:31:08.802Z,9.99
2023-03-30T04:32:40.483Z,8.36
2023-03-30T04:34:12.079Z,7.40
2023-03-30T04:35:43.572Z,7.41
2023-03-30T04:37:14.887Z,7.03
2023-03-30T04:38:46.473Z,7.75
2023-03-30T04:40:17.790Z,5.85
2023-03-30T04:41:49.355Z,5.32
2023-03-30T04:43:20.716Z,7.58
2023-03-30T04:44:52.352Z,7.03
2023-03-30T04:46:23.970Z,5.89
2023-03-30T04:47:55.859Z,6.05
2023-03-30T04:49:27.445Z,7.31
2023-03-30T04:50:58.989Z,6.87
2023-03-30T04:52:30.656Z,7.72
2023-03-30T04:54:02.076Z,7.26
2023-03-30T04:55:33.937Z,7.89
2023-03-30T04:57:05.442Z,7.19
2023-03-30T04:58:37.023Z,9.31
2023-03-30T05:00:08.391Z,9.67
2023-03-30T05:01:40.235Z,8.81
2023-03-30T05:03:11.945Z,8.94
2023-03-30T05:04:43.424Z,8.42
2023-03-30T05:06:15.207Z,8.85
2023-03-30T05:07:46.751Z,8.23
2023-03-30T05:09:18.652Z,9.11
2023-03-30T05:10:50.061Z,8.60
2023-03-30T05:12:21.557Z,8.84
2023-03-30T05:13:53.057Z,11.28
2023-03-30T05:15:24.421Z,7.75
2023-03-30T05:16:55.903Z,8.75
2023-03-30T05:18:27.309Z,11.20
2023-03-30T05:19:58.644Z,9.80
2023-03-30T05:21:30.236Z,8.21
2023-03-30T05:23:03.977Z,8.84
2023-03-30T05:24:35.377Z,7.02
2023-03-30T05:26:06.959Z,8.93
2023-03-30T05:27:38.354Z,9.21
2023-03-30T05:29:10.179Z,11.35
2023-03-30T05:30:41.766Z,7.33
2023-03-30T05:32:13.151Z,8.43
2023-03-30T05:33:44.795Z,11.35
2023-03-30T05:35:16.184Z,8.57
2023-03-30T05:36:47.500Z,9.60
2023-03-30T05:38:18.892Z,6.14
2023-03-30T05:39:50.395Z,9.44
2023-03-30T05:41:21.726Z,8.23
2023-03-30T05:42:53.425Z,10.88
2023-03-30T05:44:24.862Z,10.57
2023-03-30T05:45:56.410Z,7.22
2023-03-30T05:47:28.042Z,4.89
2023-03-30T05:48:59.633Z,6.86
2023-03-30T05:50:31.297Z,5.77
2023-03-30T05:52:02.775Z,7.97
2023-03-30T05:53:34.263Z,8.42
2023-03-30T05:55:05.676Z,8.00
2023-03-30T05:56:37.117Z,7.29
2023-03-30T05:58:08.783Z,6.68
2023-03-30T05:59:40.243Z,8.07
2023-03-30T06:01:11.716Z,9.10
2023-03-30T06:02:43.084Z,8.38
2023-03-30T06:04:15.051Z,7.50
2023-03-30T06:05:46.767Z,10.04
2023-03-30T06:07:18.269Z,6.80
2023-03-30T06:08:50.246Z,8.39
2023-03-30T06:10:21.575Z,7.38
2023-03-30T06:11:53.109Z,7.40
2023-03-30T06:13:24.507Z,6.80
2023-03-30T06:14:56.762Z,7.70
2023-03-30T06:16:28.494Z,7.28
2023-03-30T06:17:59.947Z,8.83
2023-03-30T06:19:31.518Z,5.15
2023-03-30T06:21:03.421Z,8.73
2023-03-30T06:22:34.939Z,6.23
2023-03-30T06:24:06.610Z,8.64
2023-03-30T06:25:38.261Z,8.65
2023-03-30T06:27:09.542Z,7.13
2023-03-30T06:28:41.071Z,7.16
2023-03-30T06:30:12.378Z,6.76
2023-03-30T06:31:43.839Z,10.23
2023-03-30T06:33:15.303Z,8.68
2023-03-30T06:34:47.073Z,7.52
2023-03-30T06:36:18.702Z,8.27
2023-03-30T06:37:50.107Z,6.14
2023-03-30T06:39:21.435Z,6.56
2023-03-30T06:40:52.807Z,6.80
2023-03-30T06:42:24.203Z,8.48
2023-03-30T06:43:55.817Z,8.45
2023-03-30T06:45:27.397Z,5.64
2023-03-30T06:46:58.854Z,4.72
2023-03-30T06:48:30.861Z,5.95
2023-03-30T06:50:02.260Z,8.14
2023-03-30T06:51:34.237Z,8.56
2023-03-30T06:53:05.938Z,6.49
2023-03-30T06:54:37.271Z,5.18
2023-03-30T06:56:08.744Z,6.98
2023-03-30T06:57:40.390Z,8.30
2023-03-30T06:59:11.762Z,8.00
2023-03-30T07:00:43.085Z,5.54
2023-03-30T07:02:14.854Z,5.71
2023-03-30T07:03:46.312Z,9.27
2023-03-30T07:05:17.617Z,6.62
2023-03-30T07:06:49.336Z,6.43
2023-03-30T07:08:20.750Z,6.93
2023-03-30T07:09:52.587Z,7.26
2023-03-30T07:11:24.192Z,8.97
2023-03-30T07:12:55.623Z,8.17
2023-03-30T07:14:27.356Z,10.84
2023-03-30T07:15:58.768Z,7.01
2023-03-30T07:17:30.368Z,6.22
2023-03-30T07:19:02.357Z,6.59
2023-03-30T07:20:35.057Z,7.46
2023-03-30T07:22:06.682Z,8.02
2023-03-30T07:23:38.222Z,7.59
2023-03-30T07:25:09.636Z,5.93
2023-03-30T07:26:41.323Z,6.85
2023-03-30T07:28:12.679Z,7.41
2023-03-30T07:29:44.050Z,6.85
2023-03-30T07:31:15.514Z,6.41
2023-03-30T07:32:47.311Z,6.12
2023-03-30T07:34:19.415Z,5.73
2023-03-30T07:35:50.867Z,6.40
2023-03-30T07:37:22.517Z,5.53
2023-03-30T07:38:53.987Z,6.51
2023-03-30T07:40:25.448Z,4.61
2023-03-30T07:41:57.336Z,4.65
2023-03-30T07:43:28.877Z,5.21
2023-03-30T07:45:00.668Z,5.09
2023-03-30T07:46:32.233Z,6.43
2023-03-30T07:48:03.935Z,6.68
2023-03-30T07:49:35.493Z,7.11
2023-03-30T07:51:06.933Z,5.50
2023-03-30T07:52:38.954Z,4.69
2023-03-30T07:54:10.719Z,4.34
2023-03-30T07:55:42.086Z,7.58
2023-03-30T07:57:13.590Z,6.82
2023-03-30T07:58:45.243Z,5.84
2023-03-30T08:00:16.837Z,5.17
2023-03-30T08:01:48.440Z,5.10
2023-03-30T08:03:19.893Z,7.71
2023-03-30T08:04:51.593Z,5.47
2023-03-30T08:06:23.007Z,7.14
2023-03-30T08:07:54.294Z,5.68
2023-03-30T08:09:25.699Z,6.49
2023-03-30T08:10:57.079Z,6.09
2023-03-30T08:12:28.400Z,5.15
2023-03-30T08:14:00.208Z,6.89
2023-03-30T08:15:31.662Z,5.03
2023-03-30T08:17:03.036Z,4.98
2023-03-30T08:18:34.443Z,7.33
2023-03-30T08:20:06.037Z,5.50
2023-03-30T08:21:37.817Z,6.19
2023-03-30T08:23:09.343Z,6.39
2023-03-30T08:24:40.681Z,5.46
2023-03-30T08:26:12.366Z,5.22
2023-03-30T08:27:43.748Z,4.90
2023-03-30T08:29:15.207Z,4.91
2023-03-30T08:30:46.780Z,4.51
2023-03-30T08:32:18.182Z,3.45
2023-03-30T08:33:49.885Z,3.08
2023-03-30T08:35:21.234Z,3.61
2023-03-30T08:36:53.004Z,5.51
2023-03-30T08:38:24.422Z,2.85
2023-03-30T08:39:55.772Z,3.33
2023-03-30T08:41:27.193Z,5.08
2023-03-30T08:42:58.912Z,6.70
2023-03-30T08:44:30.239Z,3.94
2023-03-30T08:46:01.863Z,4.79
2023-03-30T08:47:34.000Z,5.83
2023-03-30T08:49:05.486Z,7.51
2023-03-30T08:50:37.042Z,6.90
2023-03-30T08:52:08.482Z,6.04
2023-03-30T08:53:39.810Z,5.75
2023-03-30T08:55:11.627Z,5.45
2023-03-30T08:56:43.548Z,5.39
2023-03-30T08:58:15.222Z,6.30
2023-03-30T08:59:46.810Z,8.13
2023-03-30T09:01:18.473Z,7.88
2023-03-30T09:02:50.136Z,6.76
2023-03-30T09:04:21.547Z,6.27
2023-03-30T09:05:53.126Z,7.90
2023-03-30T09:07:24.659Z,7.30
2023-03-30T09:08:56.284Z,5.77
2023-03-30T09:10:28.243Z,5.31
2023-03-30T09:11:59.605Z,6.31
2023-03-30T09:13:31.341Z,5.10
2023-03-30T09:15:02.918Z,4.45
2023-03-30T09:16:39.701Z,4.89
2023-03-30T09:18:11.326Z,3.84
2023-03-30T09:19:42.782Z,6.68
2023-03-30T09:21:14.485Z,4.65
2023-03-30T09:22:45.874Z,6.07
2023-03-30T09:24:17.437Z,6.36
2023-03-30T09:25:48.975Z,6.86
2023-03-30T09:27:20.477Z,8.80
2023-03-30T09:28:52.021Z,6.60
2023-03-30T09:30:23.433Z,7.40
2023-03-30T09:31:54.887Z,8.34
2023-03-30T09:33:26.485Z,7.70
2023-03-30T09:34:57.995Z,9.14
2023-03-30T09:36:29.581Z,8.71
2023-03-30T09:38:01.328Z,9.66
2023-03-30T09:39:33.712Z,6.13
2023-03-30T09:41:05.442Z,5.44
2023-03-30T09:42:37.111Z,6.89
2023-03-30T09:44:08.783Z,7.83
2023-03-30T09:45:40.347Z,6.88
2023-03-30T09:47:11.737Z,8.17
2023-03-30T09:48:43.273Z,7.64
2023-03-30T09:50:14.699Z,5.49
2023-03-30T09:51:46.230Z,8.32
2023-03-30T09:53:18.023Z,5.40
2023-03-30T09:54:50.070Z,5.32
2023-03-30T09:56:21.388Z,7.80
2023-03-30T09:57:52.917Z,8.35
2023-03-30T09:59:24.413Z,8.28
2023-03-30T10:00:55.849Z,7.87
2023-03-30T10:02:27.594Z,7.07
2023-03-30T10:03:59.242Z,7.39
2023-03-30T10:05:32.294Z,6.91
2023-03-30T10:07:18.076Z,6.73
2023-03-30T10:08:50.489Z,6.50
2023-03-30T10:10:22.031Z,5.92
2023-03-30T10:11:53.352Z,4.46
2023-03-30T10:13:24.662Z,5.48
2023-03-30T10:14:56.064Z,4.42
2023-03-30T10:16:27.471Z,4.79
2023-03-30T10:17:59.404Z,5.02
2023-03-30T10:19:31.017Z,3.50
2023-03-30T10:21:02.505Z,5.36
2023-03-30T10:22:34.118Z,4.67
2023-03-30T10:24:05.573Z,5.97
2023-03-30T10:25:37.071Z,5.14
2023-03-30T10:27:08.322Z,5.11
2023-03-30T10:28:39.892Z,6.81
2023-03-30T10:30:11.386Z,5.85
2023-03-30T10:31:43.015Z,10.84
2023-03-30T10:33:14.712Z,9.44
2023-03-30T10:34:45.992Z,5.89
2023-03-30T10:36:17.350Z,6.60
2023-03-30T10:37:49.060Z,6.72
2023-03-30T10:39:20.317Z,8.84
2023-03-30T10:40:51.621Z,10.38
2023-03-30T10:42:23.079Z,10.37
2023-03-30T10:43:54.630Z,10.36
2023-03-30T10:45:26.189Z,11.40
2023-03-30T10:46:57.775Z,15.09
2023-03-30T10:48:29.221Z,14.10
2023-03-30T10:50:00.946Z,12.65
2023-03-30T10:51:32.558Z,13.91
2023-03-30T10:53:03.975Z,12.23
2023-03-30T10:54:35.464Z,11.71
2023-03-30T10:56:07.182Z,14.86
2023-03-30T10:57:38.743Z,14.14
2023-03-30T10:59:10.658Z,11.63
2023-03-30T11:00:42.001Z,14.31
2023-03-30T11:02:13.586Z,11.92
2023-03-30T11:03:45.059Z,9.95
2023-03-30T11:05:16.521Z,12.99
2023-03-30T11:06:47.862Z,12.73
2023-03-30T11:08:19.217Z,14.51
2023-03-30T11:09:50.507Z,14.07
2023-03-30T11:11:22.252Z,8.91
2023-03-30T11:12:53.557Z,9.06
2023-03-30T11:14:24.816Z,11.30
2023-03-30T11:15:56.099Z,9.84
2023-03-30T11:17:27.431Z,10.76
2023-03-30T11:18:59.006Z,11.96
2023-03-30T11:20:30.457Z,7.94
2023-03-30T11:22:01.709Z,7.76
2023-03-30T11:23:33.035Z,7.80
2023-03-30T11:25:04.379Z,12.96
2023-03-30T11:26:35.911Z,7.17
2023-03-30T11:28:07.163Z,5.50
2023-03-30T11:29:38.665Z,7.55
2023-03-30T11:31:09.949Z,9.96
2023-03-30T11:32:41.284Z,7.59
2023-03-30T11:34:12.626Z,10.20
2023-03-30T11:35:44.185Z,8.45
2023-03-30T11:37:15.553Z,9.22
2023-03-30T11:38:46.963Z,7.60
2023-03-30T11:40:18.241Z,6.63
2023-03-30T11:41:49.572Z,8.74
2023-03-30T11:43:20.948Z,9.42
2023-03-30T11:44:52.286Z,11.19
2023-03-30T11:46:23.739Z,9.21
2023-03-30T11:47:55.211Z,9.87
2023-03-30T11:49:26.773Z,9.84
2023-03-30T11:50:58.680Z,8.47
2023-03-30T11:52:30.116Z,8.95
2023-03-30T11:54:01.633Z,9.10
2023-03-30T11:55:33.138Z,8.56
2023-03-30T11:57:04.635Z,8.29
2023-03-30T11:58:36.227Z,8.33
2023-03-30T12:00:07.621Z,9.32
2023-03-30T12:01:38.988Z,12.52
2023-03-30T12:03:10.525Z,6.64
2023-03-30T12:04:43.968Z,5.47
2023-03-30T12:06:15.571Z,7.49
2023-03-30T12:07:46.954Z,6.70
2023-03-30T12:09:18.408Z,9.96
2023-03-30T12:10:49.936Z,5.74
2023-03-30T12:12:21.451Z,7.63
2023-03-30T12:13:53.937Z,8.50
2023-03-30T12:15:25.309Z,8.11
2023-03-30T12:16:56.688Z,8.33
2023-03-30T12:18:28.073Z,11.17
2023-03-30T12:19:59.424Z,9.50
2023-03-30T12:21:30.758Z,5.94
2023-03-30T12:23:02.154Z,7.57
2023-03-30T12:24:33.576Z,9.68
2023-03-30T12:26:05.378Z,7.11
2023-03-30T12:27:37.053Z,9.13
2023-03-30T12:30:42.791Z,11.94
2023-03-30T12:32:14.143Z,10.97
2023-03-30T12:33:45.753Z,10.66
2023-03-30T12:35:17.201Z,7.81
2023-03-30T12:36:48.707Z,9.05
2023-03-30T12:38:21.840Z,8.85
2023-03-30T12:39:53.527Z,7.79
2023-03-30T12:41:25.017Z,10.96
2023-03-30T12:42:56.564Z,12.14
2023-03-30T12:44:27.942Z,10.95
2023-03-30T12:45:59.546Z,10.47
2023-03-30T12:47:31.056Z,14.40
2023-03-30T12:49:05.062Z,10.82
2023-03-30T12:50:37.136Z,9.76
2023-03-30T12:52:09.882Z,10.84
2023-03-30T12:53:41.309Z,9.36
2023-03-30T12:55:12.797Z,6.82
2023-03-30T12:56:44.327Z,11.65
2023-03-30T12:58:15.945Z,11.79
2023-03-30T12:59:49.065Z,7.52
2023-03-30T13:01:20.833Z,11.32
2023-03-30T13:02:52.403Z,8.76
2023-03-30T13:04:28.813Z,8.85
2023-03-30T13:06:01.817Z,7.59
2023-03-30T13:07:33.184Z,6.11
2023-03-30T13:09:04.480Z,4.18
2023-03-30T13:10:40.977Z,3.02
2023-03-30T13:12:12.256Z,4.60
2023-03-30T13:13:48.576Z,3.88
2023-03-30T13:15:20.130Z,3.68
2023-03-30T13:16:51.751Z,5.57
2023-03-30T13:18:23.082Z,4.88
2023-03-30T13:19:54.357Z,4.59
2023-03-30T13:21:25.962Z,8.00
2023-03-30T13:22:57.325Z,6.21
2023-03-30T13:25:04.316Z,6.56
2023-03-30T13:26:35.727Z,4.88
2023-03-30T13:28:07.092Z,6.42
2023-03-30T13:29:38.528Z,4.38
2023-03-30T13:31:10.161Z,5.64
2023-03-30T13:32:51.771Z,4.36
2023-03-30T13:34:24.319Z,4.76
2023-03-30T13:36:06.606Z,5.18
2023-03-30T13:37:58.134Z,4.71
2023-03-30T13:40:24.268Z,4.97
2023-03-30T13:42:07.490Z,7.50
2023-03-30T13:43:43.262Z,10.60
2023-03-30T13:45:55.001Z,8.99
2023-03-30T13:48:07.627Z,8.97
2023-03-30T13:51:39.621Z,8.09
2023-03-30T13:53:11.151Z,8.34
2023-03-30T13:54:47.490Z,7.62
2023-03-30T13:58:15.617Z,6.27
2023-03-30T13:59:57.003Z,10.52
2023-03-30T14:01:28.492Z,11.16
2023-03-30T14:03:38.120Z,10.01
2023-03-30T14:05:20.087Z,6.69
2023-03-30T14:06:52.529Z,7.01
2023-03-30T14:08:26.088Z,8.25
2023-03-30T14:10:02.993Z,8.28
2023-03-30T14:11:34.505Z,9.91
2023-03-30T14:13:05.967Z,9.35
2023-03-30T14:14:37.362Z,8.64
2023-03-30T14:16:08.791Z,10.00
2023-03-30T14:17:40.237Z,7.84
2023-03-30T14:19:11.822Z,6.48
2023-03-30T14:20:43.404Z,6.44
2023-03-30T14:22:14.835Z,8.05
2023-03-30T14:23:46.331Z,10.01
2023-03-30T14:25:17.695Z,9.34
2023-03-30T14:26:49.490Z,7.23
2023-03-30T14:28:21.428Z,6.29
2023-03-30T14:29:52.942Z,7.87
2023-03-30T14:31:24.335Z,6.50
2023-03-30T14:32:55.767Z,8.03
2023-03-30T14:34:32.409Z,8.14
2023-03-30T14:36:13.805Z,8.20
2023-03-30T14:37:52.299Z,8.36
2023-03-30T14:39:34.357Z,7.44
2023-03-30T14:41:05.612Z,8.50
2023-03-30T14:42:36.988Z,8.76
2023-03-30T14:44:08.365Z,8.15
2023-03-30T14:45:40.883Z,7.52
2023-03-30T14:47:12.492Z,8.32
2023-03-30T14:48:43.861Z,7.28
2023-03-30T14:50:15.259Z,7.53
2023-03-30T14:51:56.865Z,6.76
2023-03-30T14:53:48.502Z,9.78
2023-03-30T14:55:42.237Z,9.96
2023-03-30T14:57:18.908Z,7.23
2023-03-30T14:58:55.321Z,9.01
2023-03-30T15:00:26.640Z,10.88
2023-03-30T15:02:08.124Z,9.44
2023-03-30T15:04:28.864Z,8.94
2023-03-30T15:06:29.699Z,11.23
2023-03-30T15:08:33.431Z,9.59
2023-03-30T15:10:05.028Z,8.44
2023-03-30T15:11:36.404Z,10.61
2023-03-30T15:13:08.052Z,7.91
2023-03-30T15:17:11.051Z,7.82
2023-03-30T15:18:58.799Z,12.25
2023-03-30T15:20:30.337Z,16.71
2023-03-30T15:22:01.825Z,16.28
2023-03-30T15:23:33.547Z,15.43
2023-03-30T15:25:05.358Z,12.97
2023-03-30T15:26:36.624Z,10.69
2023-03-30T15:28:23.373Z,11.61
2023-03-30T15:29:54.793Z,13.29
2023-03-30T15:31:26.217Z,11.85
2023-03-30T15:32:57.751Z,12.75
2023-03-30T15:35:00.536Z,12.63
2023-03-30T15:36:32.370Z,13.15
2023-03-30T15:38:04.650Z,15.47
2023-03-30T15:41:56.432Z,17.66
2023-03-30T15:43:27.951Z,13.11
2023-03-30T15:45:33.609Z,17.24
2023-03-30T15:47:05.510Z,15.17
2023-03-30T15:49:52.715Z,15.90
2023-03-30T15:53:15.554Z,15.26
2023-03-30T15:54:46.840Z,19.61
2023-03-30T15:56:18.404Z,14.44
2023-03-30T15:57:50.104Z,11.88
2023-03-30T15:59:21.803Z,13.90
2023-03-30T16:00:53.300Z,14.01
2023-03-30T16:02:24.678Z,11.72
2023-03-30T16:03:56.235Z,8.03
2023-03-30T16:05:27.868Z,11.18
2023-03-30T16:06:59.296Z,9.57
2023-03-30T16:08:30.749Z,8.00
2023-03-30T16:10:02.077Z,8.87
2023-03-30T16:11:38.473Z,12.55
2023-03-30T16:13:14.869Z,11.61
2023-03-30T16:14:46.303Z,10.93
2023-03-30T16:16:17.657Z,12.61
2023-03-30T16:17:49.230Z,13.44
2023-03-30T16:19:20.670Z,13.87
2023-03-30T16:20:52.148Z,11.53
2023-03-30T16:22:23.772Z,9.25
2023-03-30T16:23:55.075Z,10.01
2023-03-30T16:26:59.791Z,12.01
2023-03-30T16:28:31.237Z,10.84
2023-03-30T16:30:02.699Z,10.85
2023-03-30T16:31:34.032Z,13.16
2023-03-30T16:33:05.383Z,14.41
2023-03-30T16:34:36.898Z,13.30
2023-03-30T16:36:08.651Z,16.73
2023-03-30T16:37:40.002Z,17.13
2023-03-30T16:39:11.283Z,17.86
2023-03-30T16:40:43.163Z,16.43
2023-03-30T16:42:14.775Z,17.42
2023-03-30T16:43:46.042Z,15.82
2023-03-30T16:45:17.439Z,14.55
2023-03-30T16:46:48.836Z,15.54
2023-03-30T16:48:20.424Z,15.38
2023-03-30T16:49:51.881Z,17.55
2023-03-30T16:51:23.239Z,15.30
2023-03-30T16:52:54.543Z,14.47
2023-03-30T16:56:05.852Z,13.35
2023-03-30T16:57:47.408Z,15.07
2023-03-30T16:59:19.869Z,13.67
2023-03-30T17:00:51.389Z,14.94
2023-03-30T17:02:22.771Z,14.58
2023-03-30T17:03:54.062Z,15.38
2023-03-30T17:05:25.424Z,13.38
2023-03-30T17:06:56.831Z,17.11
2023-03-30T17:08:28.272Z,14.69
2023-03-30T17:10:00.766Z,15.41
2023-03-30T17:11:32.082Z,13.70
2023-03-30T17:13:03.435Z,12.71
2023-03-30T17:14:34.706Z,14.00
2023-03-30T17:16:06.040Z,15.72
2023-03-30T17:17:37.488Z,13.71
2023-03-30T17:19:13.809Z,13.00
2023-03-30T17:20:45.075Z,13.04
2023-03-30T17:22:16.457Z,15.74
2023-03-30T17:23:48.028Z,15.19
2023-03-30T17:25:19.612Z,13.94
2023-03-30T17:26:50.963Z,14.16
2023-03-30T17:28:22.219Z,12.37
2023-03-30T17:29:53.680Z,13.26
2023-03-30T17:31:25.254Z,13.28
2023-03-30T17:32:56.681Z,11.14
2023-03-30T17:34:28.173Z,9.46
2023-03-30T17:35:59.572Z,13.43
2023-03-30T17:37:30.913Z,11.96
2023-03-30T17:39:02.321Z,11.64
2023-03-30T17:40:33.704Z,12.60
2023-03-30T17:42:05.030Z,13.02
2023-03-30T17:43:36.476Z,8.29
2023-03-30T17:45:08.515Z,7.36
2023-03-30T17:46:39.996Z,10.18
2023-03-30T17:48:11.799Z,7.58
2023-03-30T17:49:43.253Z,9.10
2023-03-30T17:51:14.935Z,9.58
2023-03-30T17:52:46.456Z,8.15
2023-03-30T17:54:17.902Z,5.92
2023-03-30T17:55:49.357Z,11.19
2023-03-30T17:57:20.716Z,7.23
2023-03-30T17:58:52.251Z,8.40
2023-03-30T18:00:23.539Z,10.59
2023-03-30T18:01:54.910Z,8.62
2023-03-30T18:03:26.354Z,8.33
2023-03-30T18:04:57.712Z,7.20
2023-03-30T18:06:39.072Z,7.97
2023-03-30T18:08:15.318Z,7.06
2023-03-30T18:09:51.723Z,8.85
2023-03-30T18:11:23.767Z,7.17
2023-03-30T18:13:25.141Z,5.62
2023-03-30T18:15:01.399Z,7.60
2023-03-30T18:16:32.902Z,9.17
2023-03-30T18:18:04.303Z,8.06
2023-03-30T18:19:35.769Z,4.75
2023-03-30T18:21:07.518Z,7.34
2023-03-30T18:22:38.986Z,7.36
2023-03-30T18:24:10.426Z,8.59
2023-03-30T18:25:41.892Z,9.44
2023-03-30T18:27:13.183Z,10.60
2023-03-30T18:28:44.717Z,8.03
2023-03-30T18:30:21.096Z,8.61
2023-03-30T18:31:58.133Z,7.47
2023-03-30T18:33:29.501Z,9.08
2023-03-30T18:35:00.995Z,10.00
2023-03-30T18:36:37.437Z,9.35
2023-03-30T18:38:08.728Z,11.61
2023-03-30T18:39:40.110Z,8.37
2023-03-30T18:41:12.524Z,11.49
2023-03-30T18:42:44.385Z,10.29
2023-03-30T18:44:15.678Z,10.95
2023-03-30T18:45:52.248Z,11.58
2023-03-30T18:47:23.691Z,11.08
2023-03-30T18:48:55.097Z,12.17
2023-03-30T18:50:26.418Z,11.63
2023-03-30T18:51:57.979Z,10.84
2023-03-30T18:53:34.432Z,12.14
2023-03-30T18:55:05.749Z,11.57
2023-03-30T18:56:37.107Z,10.93
2023-03-30T18:58:08.542Z,11.57
2023-03-30T18:59:41.121Z,11.81
2023-03-30T19:01:12.561Z,11.95
2023-03-30T19:02:44.139Z,10.00
2023-03-30T19:04:15.974Z,10.94
2023-03-30T19:05:47.440Z,12.30
2023-03-30T19:07:18.858Z,12.76
2023-03-30T19:08:50.302Z,10.83
2023-03-30T19:10:21.652Z,11.33
2023-03-30T19:12:03.138Z,11.12
2023-03-30T19:13:34.428Z,12.34
2023-03-30T19:15:05.793Z,10.75
2023-03-30T19:16:37.421Z,11.21
2023-03-30T19:18:08.711Z,10.50
2023-03-30T19:19:40.316Z,9.87
2023-03-30T19:21:12.050Z,11.27
2023-03-30T19:22:43.597Z,9.09
2023-03-30T19:24:16.058Z,10.79
2023-03-30T19:25:47.497Z,11.53
2023-03-30T19:27:18.905Z,10.75
2023-03-30T19:28:50.271Z,9.51
2023-03-30T19:30:21.607Z,10.94
2023-03-30T19:31:53.037Z,10.17
2023-03-30T19:33:24.944Z,10.53
2023-03-30T19:34:56.474Z,10.63
2023-03-30T19:36:28.251Z,9.72
2023-03-30T19:37:59.946Z,11.30
2023-03-30T19:39:31.567Z,10.78
2023-03-30T19:41:03.226Z,12.14
2023-03-30T19:42:39.771Z,10.17
2023-03-30T19:44:11.234Z,10.05
2023-03-30T19:45:42.675Z,10.24
2023-03-30T19:47:14.262Z,8.50
2023-03-30T19:48:45.532Z,11.17
2023-03-30T19:50:16.797Z,10.03
2023-03-30T19:52:03.211Z,9.42
2023-03-30T19:53:34.584Z,7.68
2023-03-30T19:55:06.110Z,8.29
2023-03-30T19:56:37.584Z,9.97
2023-03-30T19:58:08.992Z,9.67
2023-03-30T19:59:40.282Z,8.97
2023-03-30T20:01:16.882Z,7.44
2023-03-30T20:02:48.469Z,7.69
2023-03-30T20:04:20.117Z,8.04
2023-03-30T20:05:51.466Z,7.89
2023-03-30T20:07:22.897Z,8.08
2023-03-30T20:08:54.494Z,8.32
2023-03-30T20:10:27.066Z,6.78
2023-03-30T20:12:24.451Z,6.82
2023-03-30T20:13:55.754Z,8.04
2023-03-30T20:15:27.039Z,10.06
2023-03-30T20:16:59.607Z,9.72
2023-03-30T20:18:30.927Z,6.96
2023-03-30T20:20:02.185Z,10.12
2023-03-30T20:21:33.534Z,9.09
2023-03-30T20:23:04.862Z,9.32
2023-03-30T20:24:36.210Z,9.52
2023-03-30T20:26:12.445Z,9.64
2023-03-30T20:27:43.840Z,9.59
2023-03-30T20:29:15.168Z,8.71
2023-03-30T20:30:46.526Z,8.89
2023-03-30T20:32:27.976Z,7.76
2023-03-30T20:33:59.563Z,7.70
2023-03-30T20:35:35.983Z,8.33
2023-03-30T20:37:07.419Z,7.96
2023-03-30T20:38:38.867Z,7.39